sensor_id;sensor_type;location;lat;lon;timestamp;temperature;humidity
41944;DHT22;27636;52.610;13.244;2022-09-20T00:02:11;7.40;99.90
41944;DHT22;27636;52.610;13.244;2022-09-20T00:07:14;7.60;99.90
41944;DHT22;27636;52.610;13.244;2022-09-20T00:12:19;7.50;99.90
41944;DHT22;27636;52.610;13.244;2022-09-20T00:17:23;7.40;99.90
41944;DHT22;27636;52.610;13.244;2022-09-20T00:22:26;7.20;99.90
41944;DHT22;27636;52.610;13.244;2022-09-20T00:27:30;7.20;99.90
41944;DHT22;27636;52.610;13.244;2022-09-20T00:32:33;7.00;99.90
41944;DHT22;27636;52.610;13.244;2022-09-20T00:37:38;7.10;99.90
41944;DHT22;27636;52.610;13.244;2022-09-20T00:42:43;7.00;99.90
41944;DHT22;27636;52.610;13.244;2022-09-20T00:47:49;6.80;99.90
41944;DHT22;27636;52.610;13.244;2022-09-20T00:52:59;6.80;99.90
41944;DHT22;27636;52.610;13.244;2022-09-20T00:58:05;6.80;99.90
41944;DHT22;27636;52.610;13.244;2022-09-20T01:03:09;6.70;99.90
41944;DHT22;27636;52.610;13.244;2022-09-20T01:08:13;6.70;99.90
41944;DHT22;27636;52.610;13.244;2022-09-20T01:13:17;6.70;99.90
41944;DHT22;27636;52.610;13.244;2022-09-20T01:18:21;6.70;99.90
41944;DHT22;27636;52.610;13.244;2022-09-20T01:23:34;6.70;99.90
41944;DHT22;27636;52.610;13.244;2022-09-20T01:28:43;6.70;99.90
41944;DHT22;27636;52.610;13.244;2022-09-20T01:33:52;6.70;99.90
41944;DHT22;27636;52.610;13.244;2022-09-20T01:39:04;6.60;99.90
41944;DHT22;27636;52.610;13.244;2022-09-20T01:44:12;6.50;99.90
41944;DHT22;27636;52.610;13.244;2022-09-20T01:49:24;6.50;99.90
41944;DHT22;27636;52.610;13.244;2022-09-20T01:54:54;6.50;99.90
41944;DHT22;27636;52.610;13.244;2022-09-20T02:00:11;6.50;99.90
41944;DHT22;27636;52.610;13.244;2022-09-20T02:11:04;6.70;99.90
41944;DHT22;27636;52.610;13.244;2022-09-20T02:21:52;7.00;99.90
41944;DHT22;27636;52.610;13.244;2022-09-20T02:27:06;7.10;99.90
41944;DHT22;27636;52.610;13.244;2022-09-20T02:32:25;7.10;99.90
41944;DHT22;27636;52.610;13.244;2022-09-20T02:43:13;7.30;99.90
41944;DHT22;27636;52.610;13.244;2022-09-20T02:48:22;7.30;99.90
41944;DHT22;27636;52.610;13.244;2022-09-20T02:53:35;7.30;99.90
41944;DHT22;27636;52.610;13.244;2022-09-20T02:58:50;7.30;99.90
41944;DHT22;27636;52.610;13.244;2022-09-20T03:04:01;7.40;99.90
41944;DHT22;27636;52.610;13.244;2022-09-20T03:09:17;7.50;99.90
41944;DHT22;27636;52.610;13.244;2022-09-20T03:14:28;7.50;99.90
41944;DHT22;27636;52.610;13.244;2022-09-20T03:19:45;7.50;99.90
41944;DHT22;27636;52.610;13.244;2022-09-20T03:25:06;7.60;99.90
41944;DHT22;27636;52.610;13.244;2022-09-20T03:30:26;7.70;99.90
41944;DHT22;27636;52.610;13.244;2022-09-20T03:35:43;7.80;99.90
41944;DHT22;27636;52.610;13.244;2022-09-20T03:41:05;8.00;99.90
41944;DHT22;27636;52.610;13.244;2022-09-20T03:46:16;8.20;99.90
41944;DHT22;27636;52.610;13.244;2022-09-20T03:51:25;8.20;99.90
41944;DHT22;27636;52.610;13.244;2022-09-20T03:56:47;8.30;99.90
41944;DHT22;27636;52.610;13.244;2022-09-20T04:02:08;8.40;99.90
41944;DHT22;27636;52.610;13.244;2022-09-20T04:07:18;8.50;99.90
41944;DHT22;27636;52.610;13.244;2022-09-20T04:12:28;8.50;99.90
41944;DHT22;27636;52.610;13.244;2022-09-20T04:17:48;8.50;99.90
41944;DHT22;27636;52.610;13.244;2022-09-20T04:22:55;8.60;99.90
41944;DHT22;27636;52.610;13.244;2022-09-20T04:28:08;8.50;99.90
41944;DHT22;27636;52.610;13.244;2022-09-20T04:33:18;8.50;99.90
41944;DHT22;27636;52.610;13.244;2022-09-20T04:38:23;8.50;99.90
41944;DHT22;27636;52.610;13.244;2022-09-20T04:43:50;8.40;99.90
41944;DHT22;27636;52.610;13.244;2022-09-20T04:49:26;8.40;99.90
41944;DHT22;27636;52.610;13.244;2022-09-20T04:55:08;8.30;99.90
41944;DHT22;27636;52.610;13.244;2022-09-20T05:00:18;8.20;99.90
41944;DHT22;27636;52.610;13.244;2022-09-20T05:05:49;8.10;99.90
41944;DHT22;27636;52.610;13.244;2022-09-20T05:11:16;8.20;99.90
41944;DHT22;27636;52.610;13.244;2022-09-20T05:16:47;8.20;99.90
41944;DHT22;27636;52.610;13.244;2022-09-20T05:22:05;8.20;99.90
41944;DHT22;27636;52.610;13.244;2022-09-20T05:27:21;8.40;99.90
41944;DHT22;27636;52.610;13.244;2022-09-20T05:32:37;8.60;99.90
41944;DHT22;27636;52.610;13.244;2022-09-20T05:37:48;8.80;99.90
41944;DHT22;27636;52.610;13.244;2022-09-20T05:42:58;9.10;99.90
41944;DHT22;27636;52.610;13.244;2022-09-20T05:48:13;9.10;99.90
41944;DHT22;27636;52.610;13.244;2022-09-20T05:53:42;9.20;99.90
41944;DHT22;27636;52.610;13.244;2022-09-20T05:58:56;9.20;99.90
41944;DHT22;27636;52.610;13.244;2022-09-20T06:04:11;9.20;99.90
41944;DHT22;27636;52.610;13.244;2022-09-20T06:09:34;9.40;99.90
41944;DHT22;27636;52.610;13.244;2022-09-20T06:14:47;9.40;99.90
41944;DHT22;27636;52.610;13.244;2022-09-20T06:20:07;9.40;99.90
41944;DHT22;27636;52.610;13.244;2022-09-20T06:25:17;9.50;99.90
41944;DHT22;27636;52.610;13.244;2022-09-20T06:30:24;9.60;99.90
41944;DHT22;27636;52.610;13.244;2022-09-20T06:35:35;9.70;99.90
41944;DHT22;27636;52.610;13.244;2022-09-20T06:40:43;9.80;99.90
41944;DHT22;27636;52.610;13.244;2022-09-20T06:46:06;9.80;99.90
41944;DHT22;27636;52.610;13.244;2022-09-20T06:51:11;10.00;99.90
41944;DHT22;27636;52.610;13.244;2022-09-20T06:56:17;10.00;99.90
41944;DHT22;27636;52.610;13.244;2022-09-20T07:01:22;10.10;99.90
41944;DHT22;27636;52.610;13.244;2022-09-20T07:06:34;10.40;99.90
41944;DHT22;27636;52.610;13.244;2022-09-20T07:11:38;10.90;99.90
41944;DHT22;27636;52.610;13.244;2022-09-20T07:16:41;12.00;99.90
41944;DHT22;27636;52.610;13.244;2022-09-20T07:21:46;13.20;99.90
41944;DHT22;27636;52.610;13.244;2022-09-20T07:26:57;14.10;99.90
41944;DHT22;27636;52.610;13.244;2022-09-20T07:32:01;15.00;99.90
41944;DHT22;27636;52.610;13.244;2022-09-20T07:37:06;16.40;99.90
41944;DHT22;27636;52.610;13.244;2022-09-20T07:42:09;16.50;99.90
41944;DHT22;27636;52.610;13.244;2022-09-20T07:47:12;16.00;99.90
41944;DHT22;27636;52.610;13.244;2022-09-20T07:52:20;16.70;99.90
41944;DHT22;27636;52.610;13.244;2022-09-20T07:57:23;17.20;99.90
41944;DHT22;27636;52.610;13.244;2022-09-20T08:02:27;18.40;99.90
41944;DHT22;27636;52.610;13.244;2022-09-20T08:07:32;17.10;99.90
41944;DHT22;27636;52.610;13.244;2022-09-20T08:12:35;16.20;99.90
41944;DHT22;27636;52.610;13.244;2022-09-20T08:17:59;17.60;99.90
41944;DHT22;27636;52.610;13.244;2022-09-20T08:23:03;18.60;99.90
41944;DHT22;27636;52.610;13.244;2022-09-20T08:28:24;18.90;99.90
41944;DHT22;27636;52.610;13.244;2022-09-20T08:33:28;19.70;99.90
41944;DHT22;27636;52.610;13.244;2022-09-20T08:38:33;19.70;99.90
41944;DHT22;27636;52.610;13.244;2022-09-20T08:44:01;19.60;99.90
41944;DHT22;27636;52.610;13.244;2022-09-20T08:49:06;20.70;99.40
41944;DHT22;27636;52.610;13.244;2022-09-20T08:54:14;21.10;99.80
41944;DHT22;27636;52.610;13.244;2022-09-20T08:59:19;21.60;94.40
41944;DHT22;27636;52.610;13.244;2022-09-20T09:04:28;21.40;94.70
41944;DHT22;27636;52.610;13.244;2022-09-20T09:09:37;21.80;93.50
41944;DHT22;27636;52.610;13.244;2022-09-20T09:14:43;21.80;92.40
41944;DHT22;27636;52.610;13.244;2022-09-20T09:20:07;21.10;92.70
41944;DHT22;27636;52.610;13.244;2022-09-20T09:25:24;20.70;94.50
41944;DHT22;27636;52.610;13.244;2022-09-20T09:30:30;21.00;93.30
41944;DHT22;27636;52.610;13.244;2022-09-20T09:35:35;21.10;94.90
41944;DHT22;27636;52.610;13.244;2022-09-20T09:40:48;20.40;95.90
41944;DHT22;27636;52.610;13.244;2022-09-20T09:45:53;19.30;96.90
41944;DHT22;27636;52.610;13.244;2022-09-20T09:51:08;18.30;99.90
41944;DHT22;27636;52.610;13.244;2022-09-20T09:56:37;17.50;99.90
41944;DHT22;27636;52.610;13.244;2022-09-20T10:01:54;17.70;99.90
41944;DHT22;27636;52.610;13.244;2022-09-20T10:07:06;17.40;99.90
41944;DHT22;27636;52.610;13.244;2022-09-20T10:12:27;17.60;99.90
41944;DHT22;27636;52.610;13.244;2022-09-20T10:17:48;18.10;99.90
41944;DHT22;27636;52.610;13.244;2022-09-20T10:23:01;17.90;99.90
41944;DHT22;27636;52.610;13.244;2022-09-20T10:28:44;16.90;99.90
41944;DHT22;27636;52.610;13.244;2022-09-20T10:34:09;16.90;99.90
41944;DHT22;27636;52.610;13.244;2022-09-20T10:39:23;17.60;99.90
41944;DHT22;27636;52.610;13.244;2022-09-20T10:44:39;19.20;99.90
41944;DHT22;27636;52.610;13.244;2022-09-20T10:49:54;19.50;97.50
41944;DHT22;27636;52.610;13.244;2022-09-20T10:55:12;18.20;99.90
41944;DHT22;27636;52.610;13.244;2022-09-20T11:00:21;16.60;99.90
41944;DHT22;27636;52.610;13.244;2022-09-20T11:05:30;15.00;99.90
41944;DHT22;27636;52.610;13.244;2022-09-20T11:10:41;14.00;99.90
41944;DHT22;27636;52.610;13.244;2022-09-20T11:15:52;13.40;99.90
41944;DHT22;27636;52.610;13.244;2022-09-20T11:21:02;13.10;99.90
41944;DHT22;27636;52.610;13.244;2022-09-20T11:26:12;12.90;99.90
41944;DHT22;27636;52.610;13.244;2022-09-20T11:31:24;13.10;99.90
41944;DHT22;27636;52.610;13.244;2022-09-20T11:36:32;13.40;99.90
41944;DHT22;27636;52.610;13.244;2022-09-20T11:41:42;13.60;99.90
41944;DHT22;27636;52.610;13.244;2022-09-20T11:46:51;13.60;99.90
41944;DHT22;27636;52.610;13.244;2022-09-20T11:52:10;13.50;99.90
41944;DHT22;27636;52.610;13.244;2022-09-20T11:57:19;14.20;99.90
41944;DHT22;27636;52.610;13.244;2022-09-20T12:02:29;13.70;99.90
41944;DHT22;27636;52.610;13.244;2022-09-20T12:07:38;13.60;99.90
41944;DHT22;27636;52.610;13.244;2022-09-20T12:12:44;13.70;99.90
41944;DHT22;27636;52.610;13.244;2022-09-20T12:18:26;13.90;99.90
41944;DHT22;27636;52.610;13.244;2022-09-20T12:29:53;14.10;99.90
41944;DHT22;27636;52.610;13.244;2022-09-20T12:34:58;14.30;99.90
41944;DHT22;27636;52.610;13.244;2022-09-20T12:40:01;13.80;99.90
41944;DHT22;27636;52.610;13.244;2022-09-20T12:45:15;12.90;99.90
41944;DHT22;27636;52.610;13.244;2022-09-20T12:50:21;12.40;99.90
41944;DHT22;27636;52.610;13.244;2022-09-20T12:55:51;11.50;99.90
41944;DHT22;27636;52.610;13.244;2022-09-20T13:01:25;11.20;99.90
41944;DHT22;27636;52.610;13.244;2022-09-20T13:06:30;11.20;99.90
41944;DHT22;27636;52.610;13.244;2022-09-20T13:11:39;11.40;99.90
41944;DHT22;27636;52.610;13.244;2022-09-20T13:16:51;11.80;99.90
41944;DHT22;27636;52.610;13.244;2022-09-20T13:22:01;12.90;99.90
41944;DHT22;27636;52.610;13.244;2022-09-20T13:27:07;13.30;99.90
41944;DHT22;27636;52.610;13.244;2022-09-20T13:32:15;13.70;99.90
41944;DHT22;27636;52.610;13.244;2022-09-20T13:37:20;14.30;99.90
41944;DHT22;27636;52.610;13.244;2022-09-20T13:42:28;15.10;99.90
41944;DHT22;27636;52.610;13.244;2022-09-20T13:47:32;15.90;99.90
41944;DHT22;27636;52.610;13.244;2022-09-20T13:52:45;15.70;99.90
41944;DHT22;27636;52.610;13.244;2022-09-20T13:57:49;15.20;99.90
41944;DHT22;27636;52.610;13.244;2022-09-20T14:02:53;15.10;99.90
41944;DHT22;27636;52.610;13.244;2022-09-20T14:07:59;15.00;99.90
41944;DHT22;27636;52.610;13.244;2022-09-20T14:13:05;15.10;99.90
41944;DHT22;27636;52.610;13.244;2022-09-20T14:18:14;15.60;99.90
41944;DHT22;27636;52.610;13.244;2022-09-20T14:23:22;16.00;99.90
41944;DHT22;27636;52.610;13.244;2022-09-20T14:28:26;16.00;99.90
41944;DHT22;27636;52.610;13.244;2022-09-20T14:33:31;16.30;99.90
41944;DHT22;27636;52.610;13.244;2022-09-20T14:38:36;16.80;99.90
41944;DHT22;27636;52.610;13.244;2022-09-20T14:43:40;16.90;99.90
41944;DHT22;27636;52.610;13.244;2022-09-20T14:48:44;17.20;99.90
41944;DHT22;27636;52.610;13.244;2022-09-20T14:53:51;17.00;99.90
41944;DHT22;27636;52.610;13.244;2022-09-20T14:59:20;16.70;99.90
41944;DHT22;27636;52.610;13.244;2022-09-20T15:04:26;17.30;99.90
41944;DHT22;27636;52.610;13.244;2022-09-20T15:09:35;18.50;99.90
41944;DHT22;27636;52.610;13.244;2022-09-20T15:14:38;19.40;99.90
41944;DHT22;27636;52.610;13.244;2022-09-20T15:19:45;18.10;99.90
41944;DHT22;27636;52.610;13.244;2022-09-20T15:24:50;16.40;99.90
41944;DHT22;27636;52.610;13.244;2022-09-20T15:29:53;15.00;99.90
41944;DHT22;27636;52.610;13.244;2022-09-20T15:34:57;13.80;99.90
41944;DHT22;27636;52.610;13.244;2022-09-20T15:40:03;13.30;99.90
41944;DHT22;27636;52.610;13.244;2022-09-20T15:45:09;13.40;99.90
41944;DHT22;27636;52.610;13.244;2022-09-20T15:50:12;13.70;99.90
41944;DHT22;27636;52.610;13.244;2022-09-20T15:55:17;14.10;99.90
41944;DHT22;27636;52.610;13.244;2022-09-20T16:00:21;14.20;99.90
41944;DHT22;27636;52.610;13.244;2022-09-20T16:05:24;14.00;99.90
41944;DHT22;27636;52.610;13.244;2022-09-20T16:10:28;13.70;99.90
41944;DHT22;27636;52.610;13.244;2022-09-20T16:15:33;13.10;99.90
41944;DHT22;27636;52.610;13.244;2022-09-20T16:20:36;12.80;99.90
41944;DHT22;27636;52.610;13.244;2022-09-20T16:25:41;12.70;99.90
41944;DHT22;27636;52.610;13.244;2022-09-20T16:30:54;12.70;99.90
41944;DHT22;27636;52.610;13.244;2022-09-20T16:35:58;12.60;99.90
41944;DHT22;27636;52.610;13.244;2022-09-20T16:41:03;12.50;99.90
41944;DHT22;27636;52.610;13.244;2022-09-20T16:46:06;12.50;99.90
41944;DHT22;27636;52.610;13.244;2022-09-20T16:51:11;12.40;99.90
41944;DHT22;27636;52.610;13.244;2022-09-20T16:56:23;12.20;99.90
41944;DHT22;27636;52.610;13.244;2022-09-20T17:01:27;11.90;99.90
41944;DHT22;27636;52.610;13.244;2022-09-20T17:06:32;11.70;99.90
41944;DHT22;27636;52.610;13.244;2022-09-20T17:11:39;11.60;99.90
41944;DHT22;27636;52.610;13.244;2022-09-20T17:16:44;11.50;99.90
41944;DHT22;27636;52.610;13.244;2022-09-20T17:21:50;11.40;99.90
41944;DHT22;27636;52.610;13.244;2022-09-20T17:26:54;11.30;99.90
41944;DHT22;27636;52.610;13.244;2022-09-20T17:31:58;11.20;99.90
41944;DHT22;27636;52.610;13.244;2022-09-20T17:37:02;11.00;99.90
41944;DHT22;27636;52.610;13.244;2022-09-20T17:42:08;10.80;99.90
41944;DHT22;27636;52.610;13.244;2022-09-20T17:47:11;10.60;99.90
41944;DHT22;27636;52.610;13.244;2022-09-20T17:52:14;10.50;99.90
41944;DHT22;27636;52.610;13.244;2022-09-20T17:57:19;10.30;99.90
41944;DHT22;27636;52.610;13.244;2022-09-20T18:02:22;10.10;99.90
41944;DHT22;27636;52.610;13.244;2022-09-20T18:07:25;9.90;99.90
41944;DHT22;27636;52.610;13.244;2022-09-20T18:12:30;9.80;99.90
41944;DHT22;27636;52.610;13.244;2022-09-20T18:17:33;9.60;99.90
41944;DHT22;27636;52.610;13.244;2022-09-20T18:22:38;9.50;99.90
41944;DHT22;27636;52.610;13.244;2022-09-20T18:27:42;9.40;99.90
41944;DHT22;27636;52.610;13.244;2022-09-20T18:32:49;9.30;99.90
41944;DHT22;27636;52.610;13.244;2022-09-20T18:37:52;9.20;99.90
41944;DHT22;27636;52.610;13.244;2022-09-20T18:42:57;9.20;99.90
41944;DHT22;27636;52.610;13.244;2022-09-20T18:48:06;9.00;99.90
41944;DHT22;27636;52.610;13.244;2022-09-20T18:53:10;8.90;99.90
41944;DHT22;27636;52.610;13.244;2022-09-20T18:58:19;8.80;99.90
41944;DHT22;27636;52.610;13.244;2022-09-20T19:03:25;8.60;99.90
41944;DHT22;27636;52.610;13.244;2022-09-20T19:08:33;8.50;99.90
41944;DHT22;27636;52.610;13.244;2022-09-20T19:13:45;8.50;99.90
41944;DHT22;27636;52.610;13.244;2022-09-20T19:30:13;8.30;99.90
41944;DHT22;27636;52.610;13.244;2022-09-20T19:35:21;8.10;99.90
41944;DHT22;27636;52.610;13.244;2022-09-20T19:40:34;8.00;99.90
41944;DHT22;27636;52.610;13.244;2022-09-20T19:45:47;8.00;99.90
41944;DHT22;27636;52.610;13.244;2022-09-20T19:50:54;7.90;99.90
41944;DHT22;27636;52.610;13.244;2022-09-20T19:56:02;7.90;99.90
41944;DHT22;27636;52.610;13.244;2022-09-20T20:01:10;7.80;99.90
41944;DHT22;27636;52.610;13.244;2022-09-20T20:06:19;7.70;99.90
41944;DHT22;27636;52.610;13.244;2022-09-20T20:11:35;7.70;99.90
41944;DHT22;27636;52.610;13.244;2022-09-20T20:16:53;7.70;99.90
41944;DHT22;27636;52.610;13.244;2022-09-20T20:22:03;7.50;99.90
41944;DHT22;27636;52.610;13.244;2022-09-20T20:27:10;7.50;99.90
41944;DHT22;27636;52.610;13.244;2022-09-20T20:32:15;7.50;99.90
41944;DHT22;27636;52.610;13.244;2022-09-20T20:37:18;7.40;99.90
41944;DHT22;27636;52.610;13.244;2022-09-20T20:42:25;7.50;99.90
41944;DHT22;27636;52.610;13.244;2022-09-20T20:47:30;7.30;99.90
41944;DHT22;27636;52.610;13.244;2022-09-20T20:52:36;7.30;99.90
41944;DHT22;27636;52.610;13.244;2022-09-20T20:57:40;7.30;99.90
41944;DHT22;27636;52.610;13.244;2022-09-20T21:02:45;7.30;99.90
41944;DHT22;27636;52.610;13.244;2022-09-20T21:07:49;7.10;99.90
41944;DHT22;27636;52.610;13.244;2022-09-20T21:12:53;7.10;99.90
41944;DHT22;27636;52.610;13.244;2022-09-20T21:17:58;6.90;99.90
41944;DHT22;27636;52.610;13.244;2022-09-20T21:23:02;6.90;99.90
41944;DHT22;27636;52.610;13.244;2022-09-20T21:28:05;7.00;99.90
41944;DHT22;27636;52.610;13.244;2022-09-20T21:33:10;6.80;99.90
41944;DHT22;27636;52.610;13.244;2022-09-20T21:38:14;6.80;99.90
41944;DHT22;27636;52.610;13.244;2022-09-20T21:43:18;6.80;99.90
41944;DHT22;27636;52.610;13.244;2022-09-20T21:48:37;6.70;99.90
41944;DHT22;27636;52.610;13.244;2022-09-20T21:53:59;6.70;99.90
41944;DHT22;27636;52.610;13.244;2022-09-20T21:59:04;6.60;99.90
41944;DHT22;27636;52.610;13.244;2022-09-20T22:04:11;6.70;99.90
41944;DHT22;27636;52.610;13.244;2022-09-20T22:09:15;6.70;99.90
41944;DHT22;27636;52.610;13.244;2022-09-20T22:14:19;6.60;99.90
41944;DHT22;27636;52.610;13.244;2022-09-20T22:19:23;6.60;99.90
41944;DHT22;27636;52.610;13.244;2022-09-20T22:24:27;6.50;99.90
41944;DHT22;27636;52.610;13.244;2022-09-20T22:29:32;6.40;99.90
41944;DHT22;27636;52.610;13.244;2022-09-20T22:34:38;6.40;99.90
41944;DHT22;27636;52.610;13.244;2022-09-20T22:39:41;6.30;99.90
41944;DHT22;27636;52.610;13.244;2022-09-20T22:44:45;6.20;99.90
41944;DHT22;27636;52.610;13.244;2022-09-20T22:49:50;6.20;99.90
41944;DHT22;27636;52.610;13.244;2022-09-20T22:54:53;6.20;99.90
41944;DHT22;27636;52.610;13.244;2022-09-20T22:59:56;6.20;99.90
41944;DHT22;27636;52.610;13.244;2022-09-20T23:05:01;6.10;99.90
41944;DHT22;27636;52.610;13.244;2022-09-20T23:10:05;6.10;99.90
41944;DHT22;27636;52.610;13.244;2022-09-20T23:15:09;6.10;99.90
41944;DHT22;27636;52.610;13.244;2022-09-20T23:20:15;6.10;99.90
41944;DHT22;27636;52.610;13.244;2022-09-20T23:25:18;6.10;99.90
41944;DHT22;27636;52.610;13.244;2022-09-20T23:30:21;6.10;99.90
41944;DHT22;27636;52.610;13.244;2022-09-20T23:35:27;6.00;99.90
41944;DHT22;27636;52.610;13.244;2022-09-20T23:40:30;6.00;99.90
41944;DHT22;27636;52.610;13.244;2022-09-20T23:45:35;5.90;99.90
41944;DHT22;27636;52.610;13.244;2022-09-20T23:50:41;5.90;99.90
41944;DHT22;27636;52.610;13.244;2022-09-20T23:55:45;5.70;99.90
